Terminal Aerodrome Forecast
Issued by NWS

Home | Current Version | Previous Version | Text Only | Print | Product List | Glossary On
Versions: 1 2 3 4 5 6 7 8 9 10 11 12 13 14 15 16 17 18 19 20 21 22 23 24 25 26 27 28 29
000
FTUS45 KCYS 251720
TAFLAR
TAF
KLAR 251720Z 2518/2618 24015KT P6SM BKN120
     FM252000 25012G22KT P6SM VCTS SCT060CB BKN100
     FM260200 14006KT P6SM VCSH SCT025 BKN040
     FM260900 15007KT 4SM -RA BR OVC015=

USA.gov is the U.S. government's official web portal to all federal, state and local government web resources and services.